Time;durP1;ratioP1;P1;durP2;ratioP2;P2;SDS_P1;SDS_P2;PMS_P1;PMS_P2;Temp;Humidity;BMP_temperature;BMP_pressure;BME280_temperature;BME280_humidity;BME280_pressure;Samples;Min_cycle;Max_cycle;Signal;HPM_P1;HPM_P2
2024/01/17 00:01:59;;;;;;;19.40;17.50;;;;;;;-0.48;93.09;92642.09;5026044;28;20257;-75
2024/01/17 00:04:25;;;;;;;19.97;17.63;;;;;;;-0.39;92.40;92635.72;5025213;28;20195;-75
2024/01/17 00:06:51;;;;;;;20.00;17.87;;;;;;;-0.47;92.30;92618.03;5020968;28;20254;-75
2024/01/17 00:09:18;;;;;;;19.77;17.83;;;;;;;-0.36;92.04;92630.16;5028073;28;20242;-75
2024/01/17 00:11:44;;;;;;;18.53;16.63;;;;;;;-0.52;92.20;92630.69;5018166;28;20242;-75
2024/01/17 00:14:09;;;;;;;17.07;15.53;;;;;;;-0.57;92.71;92622.84;5024525;28;20187;-75
2024/01/17 00:16:35;;;;;;;17.03;15.40;;;;;;;-0.39;92.73;92645.97;5027951;28;20299;-75
2024/01/17 00:19:00;;;;;;;16.67;15.33;;;;;;;-0.63;92.84;92646.75;5026054;28;20249;-74
2024/01/17 00:21:26;;;;;;;16.70;15.30;;;;;;;-0.50;92.70;92644.84;5026095;28;20182;-75
2024/01/17 00:23:52;;;;;;;17.73;15.87;;;;;;;-0.59;92.92;92655.63;5028786;28;20206;-75
2024/01/17 00:26:17;;;;;;;16.77;15.03;;;;;;;-0.40;92.85;92654.63;5031539;28;20282;-75
2024/01/17 00:28:42;;;;;;;17.10;15.50;;;;;;;-0.34;91.76;92661.47;5027752;28;21240;-75
2024/01/17 00:31:08;;;;;;;16.90;15.30;;;;;;;-0.68;93.72;92656.84;5023574;28;20267;-75
2024/01/17 00:33:34;;;;;;;16.53;15.13;;;;;;;-0.40;92.46;92649.50;5011757;28;20258;-75
2024/01/17 00:35:59;;;;;;;16.73;15.10;;;;;;;-0.36;92.60;92655.78;5009357;28;20234;-74
2024/01/17 00:38:24;;;;;;;14.37;13.37;;;;;;;-0.46;92.53;92645.22;5003029;28;20235;-75
2024/01/17 00:40:49;;;;;;;15.83;14.33;;;;;;;-0.49;92.35;92656.69;5009255;28;20230;-75
2024/01/17 00:43:15;;;;;;;14.87;13.67;;;;;;;-0.52;92.30;92648.63;5023337;28;20237;-75
2024/01/17 00:45:40;;;;;;;17.00;15.57;;;;;;;-0.59;92.42;92632.53;5028967;28;20187;-75
2024/01/17 00:48:05;;;;;;;14.40;13.07;;;;;;;-0.64;92.72;92640.06;5014365;28;20310;-75
2024/01/17 00:50:31;;;;;;;16.57;15.17;;;;;;;-0.66;92.71;92639.50;4991820;28;20183;-74
2024/01/17 00:52:56;;;;;;;15.13;14.10;;;;;;;-0.70;93.04;92633.22;5008901;28;20246;-75
2024/01/17 00:55:21;;;;;;;17.87;15.97;;;;;;;-0.68;92.37;92626.09;4999233;28;20211;-75
2024/01/17 00:57:47;;;;;;;16.33;14.93;;;;;;;-0.64;92.40;92637.50;5001612;28;20258;-75
2024/01/17 01:00:12;;;;;;;14.87;13.73;;;;;;;-0.69;92.99;92620.19;5010584;28;20210;-75
2024/01/17 01:02:38;;;;;;;14.97;13.53;;;;;;;-0.69;92.72;92607.38;5049293;28;20211;-75
2024/01/17 01:05:03;;;;;;;13.27;12.33;;;;;;;-0.61;92.57;92619.16;5027402;28;20195;-75
2024/01/17 01:07:29;;;;;;;12.80;12.20;;;;;;;-0.68;92.68;92620.97;5013761;28;20218;-74
2024/01/17 01:09:55;;;;;;;12.50;11.80;;;;;;;-0.75;93.10;92599.75;5008492;28;20203;-75
2024/01/17 01:12:20;;;;;;;12.43;11.70;;;;;;;-0.69;93.13;92620.19;5003279;28;20216;-75
2024/01/17 01:14:46;;;;;;;12.20;11.60;;;;;;;-0.66;92.13;92624.13;5008804;28;20222;-75
2024/01/17 01:17:11;;;;;;;11.37;10.90;;;;;;;-0.67;92.23;92617.44;5001624;28;20220;-74
2024/01/17 01:19:36;;;;;;;12.20;11.70;;;;;;;-0.64;92.15;92617.00;5037077;28;20180;-75
2024/01/17 01:22:01;;;;;;;11.77;11.03;;;;;;;-0.63;91.61;92609.09;5008980;28;20241;-75
2024/01/17 01:24:27;;;;;;;11.57;10.97;;;;;;;-0.71;92.00;92603.44;5009496;28;20278;-75
2024/01/17 01:26:52;;;;;;;12.70;12.07;;;;;;;-0.84;92.48;92585.66;5002506;28;20239;-75
2024/01/17 01:29:18;;;;;;;11.33;10.73;;;;;;;-0.77;93.08;92594.84;5009569;28;20193;-75
2024/01/17 01:31:43;;;;;;;10.07;9.57;;;;;;;-0.62;92.42;92607.31;5003832;28;20195;-75
2024/01/17 01:34:08;;;;;;;10.30;9.70;;;;;;;-0.62;91.09;92615.78;5014621;28;20222;-75
2024/01/17 01:36:34;;;;;;;11.43;10.93;;;;;;;-0.53;91.28;92631.69;5030677;28;20222;-75
2024/01/17 01:38:59;;;;;;;11.07;10.57;;;;;;;-0.42;89.94;92643.81;5031646;28;20175;-75
2024/01/17 01:41:25;;;;;;;11.70;11.10;;;;;;;-0.54;90.58;92645.50;5012252;28;20219;-75
2024/01/17 01:43:50;;;;;;;11.23;10.53;;;;;;;-0.40;90.38;92654.63;5011755;28;20215;-75
2024/01/17 01:46:26;;;;;;;11.23;10.63;;;;;;;-0.43;90.91;92645.59;5012467;28;20255;-75
2024/01/17 01:48:52;;;;;;;12.57;11.53;;;;;;;-0.45;90.93;92639.13;5012584;28;20211;-75
2024/01/17 01:51:19;;;;;;;12.23;11.53;;;;;;;-0.42;90.72;92641.25;5033841;28;20188;-75
2024/01/17 01:53:48;;;;;;;11.40;10.70;;;;;;;-0.36;90.38;92636.03;5001976;28;20239;-75
2024/01/17 01:56:17;;;;;;;13.13;12.33;;;;;;;-0.30;90.07;92630.09;5001177;28;20208;-75
2024/01/17 01:58:45;;;;;;;13.30;12.30;;;;;;;-0.21;89.82;92639.06;5024108;28;20258;-75
2024/01/17 02:01:11;;;;;;;12.40;11.63;;;;;;;-0.10;89.15;92637.56;5029628;28;20187;-75
2024/01/17 02:03:38;;;;;;;12.50;11.60;;;;;;;-0.25;90.32;92632.78;5012522;28;20219;-75
2024/01/17 02:06:03;;;;;;;13.67;12.60;;;;;;;-0.40;90.41;92634.13;5012664;28;20187;-75
2024/01/17 02:08:29;;;;;;;12.90;12.00;;;;;;;-0.52;90.81;92610.19;5006740;28;20242;-75
2024/01/17 02:10:55;;;;;;;12.33;11.73;;;;;;;-0.53;90.91;92621.44;5012659;28;20188;-75
2024/01/17 02:13:21;;;;;;;12.83;11.93;;;;;;;-0.72;90.79;92589.88;5012121;28;20223;-73
2024/01/17 02:15:46;;;;;;;12.07;11.27;;;;;;;-0.64;91.46;92620.34;5011656;28;20271;-75
2024/01/17 02:18:12;;;;;;;12.13;11.53;;;;;;;-0.60;91.59;92623.28;5009002;28;20222;-75
2024/01/17 02:20:38;;;;;;;12.43;11.83;;;;;;;-0.53;91.27;92603.50;5012131;28;20244;-75
2024/01/17 02:23:29;;;;;;;12.70;11.90;;;;;;;-0.57;91.40;92603.13;5005332;28;20238;-75
2024/01/17 02:25:56;;;;;;;13.00;12.40;;;;;;;-0.42;90.60;92618.94;5015978;28;20195;-75
2024/01/17 02:28:23;;;;;;;12.40;11.70;;;;;;;-0.42;89.81;92611.25;5008179;28;20226;-75
2024/01/17 02:30:48;;;;;;;13.43;12.63;;;;;;;-0.66;90.86;92604.41;5043192;28;20176;-75
2024/01/17 02:33:14;;;;;;;12.63;11.63;;;;;;;-0.65;91.08;92608.53;5011458;28;20294;-75
2024/01/17 02:35:39;;;;;;;13.13;12.40;;;;;;;-0.58;91.04;92605.91;5005102;28;20231;-74
2024/01/17 02:38:05;;;;;;;13.23;12.33;;;;;;;-0.51;90.87;92604.06;5000269;28;20223;-75
2024/01/17 02:40:30;;;;;;;12.27;11.47;;;;;;;-0.63;91.30;92600.63;4999460;28;20210;-74
2024/01/17 02:42:56;;;;;;;12.13;11.40;;;;;;;-0.49;91.07;92609.75;5004544;28;20220;-75
2024/01/17 02:45:21;;;;;;;13.03;12.17;;;;;;;-0.29;90.41;92610.34;5007412;28;20186;-75
2024/01/17 02:47:47;;;;;;;10.97;10.27;;;;;;;-0.11;89.68;92612.94;5000329;28;20223;-75
2024/01/17 02:50:14;;;;;;;11.03;10.20;;;;;;;-0.05;88.83;92607.69;5007722;28;20296;-75
2024/01/17 02:52:43;;;;;;;13.33;12.53;;;;;;;0.16;88.26;92614.19;5004406;28;20223;-75
2024/01/17 02:55:10;;;;;;;11.43;10.73;;;;;;;0.19;87.95;92597.59;5011305;28;20302;-75
2024/01/17 02:57:35;;;;;;;14.27;13.07;;;;;;;0.12;88.04;92592.53;5011088;28;20799;-75
2024/01/17 03:00:01;;;;;;;11.53;10.73;;;;;;;0.18;88.79;92601.91;4995359;28;20243;-75
2024/01/17 03:02:26;;;;;;;12.33;11.53;;;;;;;0.24;88.64;92603.63;5012664;28;20657;-74
2024/01/17 03:04:52;;;;;;;12.63;11.83;;;;;;;0.31;89.06;92590.72;5030007;28;20183;-74
2024/01/17 03:07:17;;;;;;;11.63;10.93;;;;;;;0.39;88.54;92613.50;5023119;28;20749;-75
2024/01/17 03:09:43;;;;;;;13.00;12.13;;;;;;;0.47;88.04;92613.97;4998795;28;20183;-75
2024/01/17 03:12:08;;;;;;;13.60;12.63;;;;;;;0.55;88.52;92625.72;4999471;28;20224;-75
2024/01/17 03:14:33;;;;;;;12.53;11.63;;;;;;;0.40;88.52;92590.19;5011145;28;20214;-75
2024/01/17 03:16:59;;;;;;;12.60;11.50;;;;;;;0.52;88.35;92608.19;5010605;28;20710;-75
2024/01/17 03:19:24;;;;;;;13.17;12.30;;;;;;;0.60;88.57;92618.16;4995622;28;20186;-75
2024/01/17 03:21:50;;;;;;;12.60;11.60;;;;;;;0.57;88.75;92611.69;4999442;28;20282;-75
2024/01/17 03:24:16;;;;;;;13.07;12.20;;;;;;;0.50;89.00;92590.44;5019531;28;20183;-75
2024/01/17 03:26:42;;;;;;;11.40;10.70;;;;;;;0.76;88.92;92600.38;5014950;28;20786;-75
2024/01/17 03:29:07;;;;;;;12.70;12.00;;;;;;;0.59;89.49;92575.50;5005070;28;20932;-75
2024/01/17 03:31:32;;;;;;;11.90;11.20;;;;;;;0.83;88.93;92602.81;5003821;28;20180;-74
2024/01/17 03:33:58;;;;;;;12.20;11.40;;;;;;;0.68;88.62;92602.44;5003881;28;20275;-75
2024/01/17 03:36:23;;;;;;;12.20;11.47;;;;;;;0.69;89.19;92580.88;5009200;28;20266;-75
2024/01/17 03:38:48;;;;;;;12.30;11.60;;;;;;;0.78;88.43;92593.19;5006498;28;20219;-75
2024/01/17 03:41:14;;;;;;;12.40;11.63;;;;;;;0.56;88.45;92574.16;5009450;28;20187;-75
2024/01/17 03:43:39;;;;;;;13.43;12.53;;;;;;;0.70;88.68;92590.94;5006700;28;20215;-75
2024/01/17 03:46:05;;;;;;;12.80;11.93;;;;;;;0.78;88.49;92577.03;4999554;28;20190;-75
2024/01/17 03:48:30;;;;;;;14.90;13.97;;;;;;;0.67;89.03;92585.47;5026593;28;20222;-75
2024/01/17 03:50:55;;;;;;;13.50;12.60;;;;;;;0.39;89.98;92582.72;5030481;28;20206;-75
2024/01/17 03:53:20;;;;;;;14.93;13.67;;;;;;;0.41;89.80;92590.94;5003434;28;20246;-75
2024/01/17 03:55:46;;;;;;;13.70;12.50;;;;;;;0.29;89.76;92588.34;5009877;28;20214;-75
2024/01/17 03:58:11;;;;;;;14.10;13.17;;;;;;;0.13;90.94;92596.66;5009040;28;20250;-75
2024/01/17 04:00:37;;;;;;;14.63;13.63;;;;;;;0.11;90.48;92616.59;4995405;28;20271;-75
2024/01/17 04:03:02;;;;;;;14.27;13.27;;;;;;;0.17;90.38;92636.28;5018126;28;20211;-74
2024/01/17 04:05:27;;;;;;;15.53;14.27;;;;;;;-0.04;90.78;92639.28;5026365;28;20204;-75
2024/01/17 04:07:53;;;;;;;19.83;17.77;;;;;;;-0.21;91.12;92648.53;5000346;28;20224;-75
2024/01/17 04:10:18;;;;;;;24.90;20.67;;;;;;;-0.64;94.14;92632.38;5010300;28;20194;-75
2024/01/17 04:12:43;;;;;;;22.80;19.67;;;;;;;-0.50;93.86;92633.84;5005898;28;20243;-76
2024/01/17 04:15:09;;;;;;;20.30;18.07;;;;;;;-0.43;93.54;92624.28;4999756;28;20216;-75
2024/01/17 04:17:35;;;;;;;19.77;17.70;;;;;;;-0.53;93.09;92618.88;5003106;28;20246;-75
2024/01/17 04:20:02;;;;;;;21.10;18.00;;;;;;;-0.26;92.89;92617.59;5007738;28;20218;-75
2024/01/17 04:22:27;;;;;;;20.40;18.23;;;;;;;-0.43;93.03;92629.41;5001482;28;20258;-76
2024/01/17 04:24:52;;;;;;;19.40;17.53;;;;;;;-0.35;93.02;92613.75;5010280;28;20247;-75
2024/01/17 04:27:18;;;;;;;20.17;15.87;;;;;;;-0.45;92.55;92632.19;5000057;28;20228;-75
2024/01/17 04:29:44;;;;;;;19.83;17.83;;;;;;;-0.54;93.01;92604.47;5008541;28;20191;-75
2024/01/17 04:32:09;;;;;;;21.13;16.77;;;;;;;-0.50;92.79;92603.06;5009305;28;20870;-75
2024/01/17 04:34:34;;;;;;;18.20;16.50;;;;;;;-0.69;93.13;92614.28;5004942;28;20224;-75
2024/01/17 04:37:00;;;;;;;19.13;17.23;;;;;;;-0.48;91.80;92634.38;5003143;28;20233;-75
2024/01/17 04:39:25;;;;;;;20.20;18.13;;;;;;;-0.60;92.62;92633.53;5009227;28;20190;-75
2024/01/17 04:41:50;;;;;;;20.03;17.93;;;;;;;-0.70;93.24;92622.97;5004045;28;20228;-75
2024/01/17 04:44:16;;;;;;;23.20;18.47;;;;;;;-0.61;92.79;92637.09;5009886;28;20215;-75
2024/01/17 04:46:41;;;;;;;26.53;20.80;;;;;;;-0.70;93.36;92625.53;5005896;28;20218;-79
2024/01/17 04:49:07;;;;;;;21.20;18.47;;;;;;;-0.42;93.04;92633.56;5028273;28;20182;-78
2024/01/17 04:51:32;;;;;;;22.57;18.87;;;;;;;-0.55;92.00;92633.69;5023527;28;20194;-77
2024/01/17 04:53:58;;;;;;;19.43;17.43;;;;;;;-0.49;92.22;92638.75;5003381;28;20188;-78
2024/01/17 04:56:24;;;;;;;23.77;17.73;;;;;;;-0.63;93.19;92633.94;4997893;28;20224;-78
2024/01/17 04:58:49;;;;;;;20.30;18.17;;;;;;;-0.70;93.46;92633.22;5008240;28;20223;-77
2024/01/17 05:01:14;;;;;;;17.30;15.53;;;;;;;-0.80;92.39;92626.00;4999637;28;20212;-78
2024/01/17 05:03:43;;;;;;;18.43;16.30;;;;;;;-1.27;94.59;92641.13;5011595;28;20223;-80
2024/01/17 05:06:08;;;;;;;18.17;16.50;;;;;;;-0.93;94.38;92658.63;5022621;28;20194;-77
2024/01/17 05:08:34;;;;;;;19.30;17.33;;;;;;;-0.83;94.07;92675.13;5031247;28;20277;-76
2024/01/17 05:11:00;;;;;;;19.40;17.83;;;;;;;-0.72;93.07;92686.47;5033615;28;20226;-75
2024/01/17 05:13:25;;;;;;;20.00;17.27;;;;;;;-0.77;93.19;92689.66;5034606;28;20213;-79
2024/01/17 05:15:51;;;;;;;18.93;17.03;;;;;;;-0.73;93.66;92675.41;5033666;28;20296;-77
2024/01/17 05:18:16;;;;;;;19.50;17.70;;;;;;;-0.61;92.85;92657.59;5031544;28;20245;-79
2024/01/17 05:20:41;;;;;;;18.53;16.73;;;;;;;-0.65;93.07;92639.28;5031890;28;20175;-75
2024/01/17 05:23:07;;;;;;;19.53;17.67;;;;;;;-0.71;92.76;92626.53;5031026;28;20218;-76
2024/01/17 05:25:32;;;;;;;22.77;18.27;;;;;;;-0.64;93.22;92624.69;5032354;28;20207;-80
2024/01/17 05:27:58;;;;;;;21.67;19.33;;;;;;;-0.47;92.75;92623.16;5028107;28;20222;-79
2024/01/17 05:30:24;;;;;;;29.20;21.00;;;;;;;-0.38;92.89;92629.56;5032340;28;20187;-76
2024/01/17 05:32:50;;;;;;;34.60;26.43;;;;;;;-0.25;92.51;92632.03;5017208;28;20227;-82
2024/01/17 05:35:16;;;;;;;24.97;20.63;;;;;;;-0.17;92.34;92647.09;5012597;28;20243;-79
2024/01/17 05:37:42;;;;;;;26.07;21.90;;;;;;;-0.58;94.67;92646.91;5029513;28;20242;-78
2024/01/17 05:40:11;;;;;;;25.63;21.47;;;;;;;-0.16;93.70;92664.09;5031073;28;20187;-76
2024/01/17 05:42:41;;;;;;;31.53;25.80;;;;;;;0.15;92.00;92663.94;5018748;28;20210;-76
2024/01/17 05:45:07;;;;;;;30.40;24.37;;;;;;;0.03;92.02;92651.03;5028050;28;20298;-76
2024/01/17 05:47:37;;;;;;;26.27;23.30;;;;;;;0.28;91.29;92653.50;5016892;28;20223;-76
2024/01/17 05:50:09;;;;;;;29.00;22.97;;;;;;;0.32;90.53;92633.34;5006651;28;20176;-76
2024/01/17 05:52:42;;;;;;;25.77;20.57;;;;;;;0.29;91.44;92644.84;5019981;28;20314;-76
2024/01/17 05:55:09;;;;;;;27.93;20.80;;;;;;;0.44;90.68;92652.13;5030136;28;20238;-75
2024/01/17 05:57:36;;;;;;;26.47;21.77;;;;;;;-0.11;93.34;92669.38;5021479;28;20230;-76
2024/01/17 06:00:08;;;;;;;28.73;21.53;;;;;;;-0.39;95.51;92666.47;4998403;28;20259;-75
2024/01/17 06:02:33;;;;;;;26.97;22.07;;;;;;;-0.05;94.29;92659.00;5000275;28;20250;-76
2024/01/17 06:04:59;;;;;;;25.87;21.13;;;;;;;0.36;92.19;92678.91;4999934;28;20183;-76
2024/01/17 06:07:24;;;;;;;24.30;20.20;;;;;;;0.49;91.07;92670.25;5006070;28;20212;-76
2024/01/17 06:09:50;;;;;;;26.07;20.67;;;;;;;0.60;90.90;92644.63;4999545;28;20218;-75
2024/01/17 06:12:15;;;;;;;22.07;18.60;;;;;;;0.70;90.55;92633.84;4997207;28;20215;-75
2024/01/17 06:14:40;;;;;;;22.60;19.50;;;;;;;0.63;90.69;92630.56;5029169;28;20199;-76
2024/01/17 06:17:06;;;;;;;24.23;19.20;;;;;;;0.54;91.02;92630.09;5017299;28;20920;-76
2024/01/17 06:19:32;;;;;;;23.30;18.37;;;;;;;0.38;91.01;92620.44;5011177;28;20192;-77
2024/01/17 06:21:57;;;;;;;21.37;17.27;;;;;;;0.73;90.40;92636.75;5002872;28;20223;-76
2024/01/17 06:24:23;;;;;;;27.47;20.10;;;;;;;0.54;90.41;92645.50;5010169;28;20190;-75
2024/01/17 06:26:48;;;;;;;25.30;20.30;;;;;;;0.39;91.60;92650.22;4994863;28;20224;-76
2024/01/17 06:29:13;;;;;;;29.80;21.27;;;;;;;0.35;91.80;92651.66;5007980;28;20180;-76
2024/01/17 06:31:39;;;;;;;26.07;23.23;;;;;;;0.47;91.67;92657.63;4998921;28;20191;-76
2024/01/17 06:34:04;;;;;;;26.07;23.17;;;;;;;0.60;91.04;92672.09;5010555;28;20184;-76
2024/01/17 06:36:29;;;;;;;26.17;20.63;;;;;;;0.50;91.10;92667.47;5005831;28;20200;-76
2024/01/17 06:38:55;;;;;;;23.53;21.20;;;;;;;0.70;90.80;92665.44;5007404;28;20200;-76
2024/01/17 06:41:20;;;;;;;24.83;21.53;;;;;;;0.53;90.48;92658.56;5011861;28;20191;-76
2024/01/17 06:43:46;;;;;;;25.47;21.73;;;;;;;0.33;91.75;92663.94;5009959;28;20216;-76
2024/01/17 06:46:12;;;;;;;30.27;22.33;;;;;;;0.45;92.10;92669.13;5011810;28;20195;-76
2024/01/17 06:48:37;;;;;;;25.67;21.73;;;;;;;0.38;92.03;92660.72;5026182;28;20214;-77
2024/01/17 06:51:03;;;;;;;27.27;21.57;;;;;;;0.64;91.75;92679.16;5012083;28;20226;-76
2024/01/17 06:53:31;;;;;;;25.63;20.67;;;;;;;0.56;91.84;92676.09;5020336;28;20287;-77
2024/01/17 06:55:56;;;;;;;29.67;21.97;;;;;;;0.68;90.79;92662.31;5024088;28;20317;-77
2024/01/17 06:58:22;;;;;;;30.47;23.23;;;;;;;0.82;91.03;92681.69;4999838;28;20228;-76
2024/01/17 07:00:47;;;;;;;32.97;24.30;;;;;;;1.06;90.61;92683.31;5011607;28;20176;-76
2024/01/17 07:03:13;;;;;;;32.40;25.73;;;;;;;0.77;89.97;92613.97;5005148;28;20278;-76
2024/01/17 07:05:39;;;;;;;36.57;27.43;;;;;;;1.04;89.82;92628.78;5008724;28;20184;-76
2024/01/17 07:08:05;;;;;;;34.50;25.47;;;;;;;1.00;89.42;92653.38;5005443;28;20224;-76
2024/01/17 07:10:31;;;;;;;37.33;27.17;;;;;;;1.04;89.55;92643.44;5011161;28;20179;-75
2024/01/17 07:12:56;;;;;;;33.30;24.33;;;;;;;0.95;90.03;92650.66;5002717;28;20230;-76
2024/01/17 07:15:21;;;;;;;33.80;27.03;;;;;;;1.17;89.19;92656.88;5009779;28;20211;-76
2024/01/17 07:17:47;;;;;;;39.43;29.50;;;;;;;1.17;88.22;92643.22;5006621;28;20239;-76
2024/01/17 07:20:13;;;;;;;45.90;30.13;;;;;;;0.68;88.45;92600.66;5002669;28;20243;-78
2024/01/17 07:22:41;;;;;;;44.57;30.90;;;;;;;1.08;89.09;92660.75;5039451;28;20286;-77
2024/01/17 07:25:12;;;;;;;46.47;30.07;;;;;;;0.48;91.82;92658.44;5007006;28;20269;-78
2024/01/17 07:27:43;;;;;;;41.23;28.47;;;;;;;1.11;90.60;92652.63;5038621;28;20215;-81
2024/01/17 07:30:13;;;;;;;39.67;27.83;;;;;;;1.41;88.26;92655.91;5004648;28;20201;-87
2024/01/17 07:32:39;;;;;;;39.03;29.93;;;;;;;1.00;89.85;92676.50;5004113;28;20219;-81
2024/01/17 07:35:05;;;;;;;40.07;29.67;;;;;;;0.63;92.56;92682.72;5035460;28;20243;-82
2024/01/17 07:37:33;;;;;;;45.13;30.73;;;;;;;0.88;91.03;92685.16;5010087;28;20219;-79
2024/01/17 07:39:59;;;;;;;46.00;32.70;;;;;;;1.00;90.00;92699.63;5006184;28;20187;-88
2024/01/17 07:42:24;;;;;;;40.80;31.53;;;;;;;1.14;92.79;92693.31;5004217;28;20250;-76
2024/01/17 07:44:50;;;;;;;45.07;32.03;;;;;;;1.46;89.96;92688.69;4998164;28;20215;-77
2024/01/17 07:47:16;;;;;;;40.47;31.07;;;;;;;1.87;88.31;92687.81;5008068;28;20278;-79
2024/01/17 07:49:42;;;;;;;62.33;37.27;;;;;;;2.07;90.27;92688.25;5009763;28;20191;-77
2024/01/17 07:52:08;;;;;;;51.17;32.53;;;;;;;2.37;86.13;92687.09;5004367;28;20220;-75
2024/01/17 07:54:33;;;;;;;49.10;30.47;;;;;;;2.60;84.09;92678.53;4999527;28;20239;-76
2024/01/17 07:56:58;;;;;;;41.37;29.60;;;;;;;2.54;82.92;92657.03;4999182;28;20247;-76
2024/01/17 07:59:24;;;;;;;47.43;30.50;;;;;;;2.51;84.64;92662.66;5007690;28;20215;-76
2024/01/17 08:01:49;;;;;;;42.00;30.13;;;;;;;2.67;83.26;92682.53;5036863;28;20235;-76
2024/01/17 08:04:18;;;;;;;42.00;30.30;;;;;;;2.86;82.12;92671.03;5010213;28;20180;-76
2024/01/17 08:06:43;;;;;;;42.27;30.63;;;;;;;3.00;81.50;92661.25;5001587;28;20198;-77
2024/01/17 08:09:20;;;;;;;40.30;29.77;;;;;;;2.46;83.54;92669.50;5008354;28;20180;-76
2024/01/17 08:11:58;;;;;;;42.53;29.50;;;;;;;1.84;86.91;92683.88;5004462;28;20198;-76
2024/01/17 08:14:24;;;;;;;37.63;29.33;;;;;;;2.11;86.30;92686.78;5007995;28;20183;-77
2024/01/17 08:16:53;;;;;;;41.30;30.13;;;;;;;2.16;85.65;92695.41;5006470;28;20254;-76
2024/01/17 08:19:19;;;;;;;33.63;29.10;;;;;;;1.76;87.87;92683.44;5008006;28;20198;-76
2024/01/17 08:21:45;;;;;;;45.73;33.90;;;;;;;2.05;86.71;92682.53;5001174;28;20176;-76
2024/01/17 08:24:10;;;;;;;35.37;28.53;;;;;;;2.90;83.89;92691.97;5001258;28;20184;-76
2024/01/17 08:26:38;;;;;;;50.87;34.40;;;;;;;2.99;82.40;92678.50;4997687;28;20210;-76
2024/01/17 08:29:04;;;;;;;41.53;32.30;;;;;;;3.32;80.73;92703.56;4992680;28;20192;-76
2024/01/17 08:31:30;;;;;;;49.50;32.70;;;;;;;3.17;80.05;92708.47;5008933;28;20184;-76
2024/01/17 08:33:56;;;;;;;50.17;30.87;;;;;;;3.23;80.52;92708.34;5003266;28;20243;-76
2024/01/17 08:36:22;;;;;;;54.43;33.90;;;;;;;3.51;80.84;92707.53;4995541;28;20215;-77
2024/01/17 08:38:48;;;;;;;40.07;29.10;;;;;;;3.63;79.19;92687.56;5000563;28;20251;-73
2024/01/17 08:41:18;;;;;;;37.40;28.67;;;;;;;3.80;79.59;92678.03;5007217;28;20191;-77
2024/01/17 08:43:43;;;;;;;42.77;31.60;;;;;;;3.69;80.74;92680.72;5006245;28;20227;-78
2024/01/17 08:46:11;;;;;;;57.70;35.17;;;;;;;3.96;79.38;92679.81;5008875;28;20192;-76
2024/01/17 08:48:37;;;;;;;45.60;33.43;;;;;;;3.29;81.71;92685.97;5006219;28;20226;-78
2024/01/17 08:51:03;;;;;;;42.37;29.93;;;;;;;2.59;85.43;92697.56;5008655;28;20175;-76
2024/01/17 08:53:31;;;;;;;35.87;28.47;;;;;;;2.40;87.22;92696.16;5004752;28;20223;-77
2024/01/17 08:55:57;;;;;;;40.33;28.20;;;;;;;2.54;86.83;92695.69;5006909;28;21086;-78
2024/01/17 08:58:22;;;;;;;40.50;28.43;;;;;;;3.15;83.94;92697.59;4998860;28;20302;-77
2024/01/17 09:00:47;;;;;;;42.90;31.60;;;;;;;3.20;83.28;92692.53;4994096;28;20976;-78
2024/01/17 09:03:13;;;;;;;41.23;28.63;;;;;;;3.96;80.92;92697.09;5004160;28;20227;-76
2024/01/17 09:05:39;;;;;;;42.00;30.40;;;;;;;3.28;82.38;92694.75;4998421;28;20191;-77
2024/01/17 09:08:05;;;;;;;42.67;31.10;;;;;;;3.35;84.20;92703.09;5007968;28;20630;-77
2024/01/17 09:10:30;;;;;;;43.10;33.53;;;;;;;3.06;83.67;92697.22;5007028;28;20194;-78
2024/01/17 09:12:55;;;;;;;43.00;33.17;;;;;;;2.95;84.79;92692.09;5018836;28;20253;-76
2024/01/17 09:15:21;;;;;;;48.37;35.60;;;;;;;2.74;87.21;92695.31;5028672;28;20199;-79
2024/01/17 09:17:46;;;;;;;56.03;36.63;;;;;;;3.44;84.07;92706.09;5020938;28;20290;-77
2024/01/17 09:20:14;;;;;;;47.23;33.33;;;;;;;3.95;80.54;92678.28;5008275;28;20230;-76
2024/01/17 09:22:40;;;;;;;53.80;33.47;;;;;;;3.87;81.01;92667.53;4999028;28;20778;-76
2024/01/17 09:25:07;;;;;;;48.27;34.00;;;;;;;4.07;80.81;92653.13;4998942;28;20188;-75
2024/01/17 09:27:32;;;;;;;51.40;35.37;;;;;;;4.17;80.30;92662.81;5007140;28;20238;-76
2024/01/17 09:29:58;;;;;;;41.63;32.83;;;;;;;4.16;79.38;92630.22;5008309;28;20179;-76
2024/01/17 09:32:23;;;;;;;45.10;33.50;;;;;;;4.36;79.98;92649.38;5005447;28;20238;-76
2024/01/17 09:34:49;;;;;;;42.23;34.47;;;;;;;4.17;80.87;92648.06;5001666;28;20219;-76
2024/01/17 09:37:15;;;;;;;63.80;39.13;;;;;;;4.14;79.94;92658.88;4999956;28;20823;-76
2024/01/17 09:39:40;;;;;;;52.70;34.93;;;;;;;3.27;83.06;92646.72;5006186;28;20184;-76
2024/01/17 09:42:06;;;;;;;44.47;31.63;;;;;;;4.07;80.67;92658.28;5002803;28;20227;-76
2024/01/17 09:44:33;;;;;;;47.97;34.80;;;;;;;4.28;79.52;92660.09;5007690;28;21087;-76
2024/01/17 09:47:01;;;;;;;45.63;34.83;;;;;;;4.11;79.60;92664.53;5006429;28;20227;-76
2024/01/17 09:49:30;;;;;;;47.30;32.07;;;;;;;4.83;77.30;92663.38;5006294;28;20235;-76
2024/01/17 09:51:55;;;;;;;45.83;32.20;;;;;;;4.77;76.37;92648.03;5007231;28;20302;-75
2024/01/17 09:54:25;;;;;;;48.70;34.27;;;;;;;4.09;78.50;92635.59;5006205;28;20694;-75
2024/01/17 09:56:51;;;;;;;46.77;35.77;;;;;;;4.68;76.38;92627.03;5010773;28;21062;-74
2024/01/17 09:59:21;;;;;;;53.50;33.17;;;;;;;4.75;76.25;92621.63;5011547;28;20218;-75
2024/01/17 10:01:47;;;;;;;50.03;34.33;;;;;;;4.71;75.92;92621.34;5004100;28;20267;-75
2024/01/17 10:04:14;;;;;;;43.93;33.30;;;;;;;4.64;76.21;92620.75;5010383;28;20854;-75
2024/01/17 10:06:43;;;;;;;42.50;31.43;;;;;;;4.85;75.45;92625.13;5033532;28;20195;-75
2024/01/17 10:09:09;;;;;;;45.70;32.70;;;;;;;4.46;77.90;92626.25;5009833;28;20175;-76
2024/01/17 10:11:35;;;;;;;47.93;33.03;;;;;;;4.78;76.37;92623.72;5003746;28;20207;-76
2024/01/17 10:14:01;;;;;;;43.70;31.67;;;;;;;4.25;77.98;92614.09;5009324;28;20188;-77
2024/01/17 10:16:27;;;;;;;41.73;32.13;;;;;;;4.69;76.29;92618.22;5010562;28;20283;-76
2024/01/17 10:18:53;;;;;;;43.00;30.60;;;;;;;5.17;74.37;92616.63;5027170;28;20243;-76
2024/01/17 10:21:19;;;;;;;44.67;31.30;;;;;;;5.23;74.27;92631.19;5028219;28;20187;-76
2024/01/17 10:23:45;;;;;;;34.83;30.17;;;;;;;5.47;72.17;92614.28;5052604;28;20234;-76
2024/01/17 10:26:10;;;;;;;42.30;31.40;;;;;;;5.02;73.08;92591.41;5033651;28;20246;-75
2024/01/17 10:28:36;;;;;;;47.50;32.30;;;;;;;5.06;73.46;92614.97;5020877;28;20229;-76
2024/01/17 10:31:07;;;;;;;45.10;30.80;;;;;;;5.15;72.11;92587.63;5030248;28;20286;-76
2024/01/17 10:33:33;;;;;;;45.27;30.03;;;;;;;5.23;72.82;92594.94;5007185;28;20290;-76
2024/01/17 10:35:59;;;;;;;46.17;30.50;;;;;;;5.54;73.15;92596.75;5010380;28;20330;-76
2024/01/17 10:38:31;;;;;;;44.43;29.97;;;;;;;5.00;72.51;92569.41;5007642;28;20235;-79
2024/01/17 10:41:04;;;;;;;39.13;29.20;;;;;;;5.20;70.63;92598.03;5011793;28;20171;-82
2024/01/17 10:43:29;;;;;;;33.57;27.70;;;;;;;5.06;72.27;92599.47;5025094;28;20231;-78
2024/01/17 10:45:55;;;;;;;43.33;32.67;;;;;;;5.66;70.13;92584.41;5029723;28;20187;-77
2024/01/17 10:48:22;;;;;;;39.33;30.17;;;;;;;6.28;68.83;92582.72;5014504;28;20339;-78
2024/01/17 10:50:50;;;;;;;40.60;30.30;;;;;;;6.52;67.65;92565.69;5006316;28;20222;-78
2024/01/17 10:53:17;;;;;;;37.83;28.97;;;;;;;6.69;66.81;92568.06;5007665;28;20230;-78
2024/01/17 10:55:45;;;;;;;33.70;27.90;;;;;;;6.42;66.89;92563.06;4996904;28;21022;-78
2024/01/17 10:58:14;;;;;;;37.40;28.03;;;;;;;6.43;65.36;92570.59;5002653;28;20231;-78
2024/01/17 11:00:43;;;;;;;38.47;31.23;;;;;;;5.98;67.71;92560.03;5003563;28;20185;-79
2024/01/17 11:03:13;;;;;;;43.53;30.23;;;;;;;6.34;65.68;92560.94;5013476;28;20238;-77
2024/01/17 11:05:48;;;;;;;39.43;29.10;;;;;;;6.48;66.55;92543.88;5010525;28;20251;-77
2024/01/17 11:08:14;;;;;;;41.67;29.43;;;;;;;6.34;65.44;92546.19;5008190;28;20298;-76
2024/01/17 11:10:41;;;;;;;38.27;28.10;;;;;;;6.24;66.09;92543.53;5002788;28;20190;-76
2024/01/17 11:13:09;;;;;;;39.13;27.80;;;;;;;6.57;64.56;92537.16;5007455;28;20215;-76
2024/01/17 11:15:38;;;;;;;37.43;28.80;;;;;;;6.93;63.52;92525.84;5007993;28;20230;-76
2024/01/17 11:18:05;;;;;;;39.67;29.00;;;;;;;7.11;62.51;92524.56;4997982;28;20236;-78